Time;durP1;ratioP1;P1;durP2;ratioP2;P2;SDS_P1;SDS_P2;PMS_P1;PMS_P2;Temp;Humidity;BMP_temperature;BMP_pressure;BME280_temperature;BME280_humidity;BME280_pressure;Samples;Min_cycle;Max_cycle;Signal;HPM_P1;HPM_P2
2024/02/19 05:01:34;;;;;;;0.70;0.70;;;6.80;99.90;;;;;;5349540;23;20261;-68
2024/02/19 05:04:01;;;;;;;1.00;1.00;;;6.80;99.90;;;;;;4903819;29;20222;-69
2024/02/19 05:06:29;;;;;;;1.30;1.10;;;6.80;99.90;;;;;;4896563;29;20664;-68
2024/02/19 05:08:55;;;;;;;0.40;0.40;;;6.80;99.90;;;;;;4895945;29;20233;-67
2024/02/19 05:11:22;;;;;;;0.68;0.68;;;6.80;99.90;;;;;;4895365;29;20248;-69
2024/02/19 05:13:49;;;;;;;1.15;1.10;;;6.80;99.90;;;;;;4895551;29;20210;-68
2024/02/19 05:16:16;;;;;;;2.45;2.42;;;6.80;99.90;;;;;;4895466;29;20269;-68
2024/02/19 05:18:44;;;;;;;1.45;1.45;;;6.70;99.90;;;;;;4893424;29;20586;-69
2024/02/19 05:21:11;;;;;;;1.15;1.13;;;6.60;99.90;;;;;;4894917;29;20263;-68
2024/02/19 05:23:38;;;;;;;2.95;1.08;;;6.60;99.90;;;;;;4896975;29;20220;-67
2024/02/19 05:26:05;;;;;;;2.00;1.90;;;6.60;99.90;;;;;;4898095;29;20217;-69
2024/02/19 05:28:32;;;;;;;0.63;0.63;;;6.60;99.90;;;;;;4899175;29;20245;-68
2024/02/19 05:30:59;;;;;;;1.27;1.23;;;6.60;99.90;;;;;;4898829;29;20234;-68
2024/02/19 05:33:26;;;;;;;1.52;1.15;;;6.50;99.90;;;;;;4898595;29;20221;-69
2024/02/19 05:35:55;;;;;;;0.70;0.70;;;6.50;99.90;;;;;;4898832;29;20218;-70
2024/02/19 05:38:21;;;;;;;0.63;0.63;;;6.50;99.90;;;;;;4898150;29;20212;-70
2024/02/19 05:40:49;;;;;;;0.70;0.70;;;6.50;99.90;;;;;;4898480;29;20238;-69
2024/02/19 05:43:15;;;;;;;2.70;1.33;;;6.50;99.90;;;;;;4898230;29;20678;-69
2024/02/19 05:45:42;;;;;;;0.75;0.75;;;6.50;99.90;;;;;;4898512;29;20214;-70
2024/02/19 05:48:09;;;;;;;1.88;1.40;;;6.50;99.90;;;;;;4893051;29;20238;-70
2024/02/19 05:50:36;;;;;;;2.75;1.42;;;6.50;99.90;;;;;;4895276;29;20321;-69
2024/02/19 05:53:04;;;;;;;0.80;0.80;;;6.50;99.90;;;;;;4896557;29;20221;-68
2024/02/19 05:55:32;;;;;;;1.00;1.00;;;6.50;99.90;;;;;;4898617;29;20229;-69
2024/02/19 05:57:58;;;;;;;1.80;1.15;;;6.50;99.90;;;;;;4897677;29;20218;-70
2024/02/19 06:00:25;;;;;;;1.17;1.15;;;6.50;99.90;;;;;;4897329;29;20217;-68
2024/02/19 06:02:52;;;;;;;3.25;1.05;;;6.50;99.90;;;;;;4897697;29;20218;-68
2024/02/19 06:05:18;;;;;;;1.15;0.77;;;6.50;99.90;;;;;;4897026;29;20210;-69
2024/02/19 06:07:45;;;;;;;0.93;0.93;;;6.50;99.90;;;;;;4894098;29;20824;-69
2024/02/19 06:10:13;;;;;;;0.88;0.60;;;6.50;99.90;;;;;;4897829;29;20217;-69
2024/02/19 06:12:40;;;;;;;1.63;0.90;;;6.60;99.90;;;;;;4897492;29;20211;-67
2024/02/19 06:15:08;;;;;;;2.25;1.05;;;6.60;99.90;;;;;;4897772;29;20207;-69
2024/02/19 06:17:34;;;;;;;0.85;0.85;;;6.60;99.90;;;;;;4895839;29;20730;-68
2024/02/19 06:20:01;;;;;;;0.40;0.40;;;6.60;99.90;;;;;;4896743;29;20314;-68
2024/02/19 06:22:28;;;;;;;0.88;0.88;;;6.60;99.90;;;;;;4896871;29;20235;-68
2024/02/19 06:24:55;;;;;;;0.65;0.63;;;6.60;99.90;;;;;;4898117;29;20211;-66
2024/02/19 06:27:23;;;;;;;0.43;0.43;;;6.60;99.90;;;;;;4897409;29;20207;-67
2024/02/19 06:29:49;;;;;;;0.20;0.20;;;6.60;99.90;;;;;;4897498;29;20234;-67
2024/02/19 06:32:16;;;;;;;0.40;0.40;;;6.60;99.90;;;;;;4897170;29;20230;-68
2024/02/19 06:34:43;;;;;;;0.20;0.20;;;6.70;99.90;;;;;;4896643;29;20314;-68
2024/02/19 06:37:10;;;;;;;0.40;0.40;;;6.70;99.90;;;;;;4897304;29;20215;-67
2024/02/19 06:39:39;;;;;;;0.52;0.52;;;6.60;99.90;;;;;;4895511;29;20259;-68
2024/02/19 06:42:06;;;;;;;0.30;0.30;;;6.60;99.90;;;;;;4895830;29;21753;-68
2024/02/19 06:44:34;;;;;;;0.20;0.20;;;6.70;99.90;;;;;;4897071;29;20218;-69
2024/02/19 06:47:01;;;;;;;0.73;0.38;;;6.70;99.90;;;;;;4897093;29;20211;-70
2024/02/19 06:49:27;;;;;;;0.20;0.20;;;6.70;99.90;;;;;;4894454;29;20237;-70
2024/02/19 06:51:54;;;;;;;0.30;0.30;;;6.60;99.90;;;;;;4896638;29;20265;-69
2024/02/19 06:54:21;;;;;;;0.52;0.52;;;6.70;99.90;;;;;;4897078;29;20213;-69
2024/02/19 06:56:48;;;;;;;0.43;0.20;;;6.70;99.90;;;;;;4896559;29;20218;-70
2024/02/19 06:59:14;;;;;;;0.28;0.28;;;6.70;99.90;;;;;;4897104;29;20597;-69
2024/02/19 07:01:42;;;;;;;0.45;0.45;;;6.70;99.90;;;;;;4894007;29;20642;-69
2024/02/19 07:04:11;;;;;;;3.50;0.55;;;6.70;99.90;;;;;;4896577;29;20211;-70
2024/02/19 07:06:38;;;;;;;0.22;0.22;;;6.70;99.90;;;;;;4897030;29;20218;-69
2024/02/19 07:09:05;;;;;;;0.25;0.25;;;6.70;99.90;;;;;;4890176;29;20294;-69
2024/02/19 07:11:32;;;;;;;0.52;0.52;;;6.80;99.90;;;;;;4893661;29;20235;-70
2024/02/19 07:13:59;;;;;;;1.00;1.00;;;6.80;99.90;;;;;;4896803;29;20207;-69
2024/02/19 07:16:25;;;;;;;4.38;2.30;;;6.80;99.90;;;;;;4897045;29;20211;-70
2024/02/19 07:18:53;;;;;;;1.17;1.17;;;6.80;99.90;;;;;;4892064;29;20227;-70
2024/02/19 07:21:22;;;;;;;1.38;1.27;;;6.90;99.90;;;;;;4896089;29;20227;-69
2024/02/19 07:23:49;;;;;;;0.90;0.90;;;6.80;99.90;;;;;;4896045;29;20219;-70
2024/02/19 07:26:15;;;;;;;0.65;0.65;;;6.90;99.90;;;;;;4897131;29;20211;-69
2024/02/19 07:28:42;;;;;;;0.70;0.70;;;6.90;99.90;;;;;;4896099;29;20322;-70
2024/02/19 07:31:09;;;;;;;0.93;0.85;;;6.90;99.90;;;;;;4898386;29;20239;-70
2024/02/19 07:33:36;;;;;;;1.52;1.52;;;6.90;99.90;;;;;;4897935;29;20216;-70
2024/02/19 07:36:04;;;;;;;1.38;1.23;;;6.90;99.90;;;;;;4897248;29;20214;-70
2024/02/19 07:38:31;;;;;;;1.25;1.25;;;7.00;99.90;;;;;;4896512;29;20215;-70
2024/02/19 07:40:58;;;;;;;1.45;1.35;;;7.00;99.90;;;;;;4891276;29;20235;-70
2024/02/19 07:43:25;;;;;;;1.23;1.10;;;7.00;99.90;;;;;;4893389;29;20234;-70
2024/02/19 07:45:51;;;;;;;1.75;1.42;;;7.10;99.90;;;;;;4891676;29;20746;-70
2024/02/19 07:48:18;;;;;;;2.33;2.22;;;7.10;99.90;;;;;;4896644;29;20216;-69
2024/02/19 07:50:45;;;;;;;3.60;3.30;;;7.10;99.90;;;;;;4889841;29;20235;-70
2024/02/19 07:53:13;;;;;;;0.70;0.70;;;7.10;99.90;;;;;;4895504;29;20211;-69
2024/02/19 07:55:39;;;;;;;1.70;1.60;;;7.10;99.90;;;;;;4896600;29;20226;-69
2024/02/19 07:58:06;;;;;;;3.33;1.05;;;7.10;99.90;;;;;;4895879;29;20207;-69
2024/02/19 08:00:33;;;;;;;2.90;2.67;;;7.20;99.90;;;;;;4893958;29;20262;-70
2024/02/19 08:03:00;;;;;;;0.90;0.90;;;7.20;99.90;;;;;;4892457;29;20211;-70
2024/02/19 08:05:26;;;;;;;3.95;2.85;;;7.30;99.90;;;;;;4894051;29;20211;-70
2024/02/19 08:07:53;;;;;;;2.35;2.10;;;7.40;99.90;;;;;;4898427;29;20716;-69
2024/02/19 08:10:21;;;;;;;1.23;0.40;;;7.40;99.90;;;;;;4896919;29;20310;-68
2024/02/19 08:12:48;;;;;;;8.27;6.82;;;7.40;99.90;;;;;;4891034;29;20208;-68
2024/02/19 08:15:14;;;;;;;2.72;1.63;;;7.50;99.90;;;;;;4896283;29;20214;-68
2024/02/19 08:17:41;;;;;;;1.15;1.15;;;7.50;99.90;;;;;;4890333;29;20937;-68
2024/02/19 08:20:09;;;;;;;0.60;0.60;;;7.50;99.90;;;;;;4894954;29;20207;-68
2024/02/19 08:22:36;;;;;;;4.93;0.95;;;7.50;99.90;;;;;;4889530;29;20207;-68
2024/02/19 08:25:03;;;;;;;1.13;1.00;;;7.60;99.90;;;;;;4895616;29;20216;-68
2024/02/19 08:27:31;;;;;;;1.10;1.10;;;7.60;99.90;;;;;;4896107;29;20262;-67
2024/02/19 08:29:58;;;;;;;1.30;0.45;;;7.70;99.90;;;;;;4895695;29;20234;-67
2024/02/19 08:32:24;;;;;;;1.30;0.85;;;7.70;99.90;;;;;;4894417;29;20234;-68
2024/02/19 08:34:51;;;;;;;0.40;0.40;;;7.70;99.90;;;;;;4895954;29;20222;-68
2024/02/19 08:37:18;;;;;;;0.47;0.47;;;7.80;99.90;;;;;;4896922;29;20218;-68
2024/02/19 08:39:47;;;;;;;3.17;1.60;;;7.80;99.90;;;;;;4893584;29;20215;-68
2024/02/19 08:42:14;;;;;;;2.78;2.28;;;8.00;99.90;;;;;;4892292;29;20231;-68
2024/02/19 08:44:42;;;;;;;5.50;2.80;;;8.10;99.90;;;;;;4895634;29;20238;-68
2024/02/19 08:47:09;;;;;;;1.52;1.52;;;8.20;99.90;;;;;;4892330;29;20214;-68
2024/02/19 08:49:37;;;;;;;1.60;1.15;;;8.30;99.90;;;;;;4891110;29;20271;-68
2024/02/19 08:52:04;;;;;;;1.00;0.90;;;8.30;99.90;;;;;;4893225;29;20227;-68
2024/02/19 08:54:31;;;;;;;3.22;0.70;;;8.40;99.90;;;;;;4895434;29;20224;-67
2024/02/19 08:56:58;;;;;;;0.40;0.40;;;8.40;99.90;;;;;;4891889;29;20692;-68
2024/02/19 08:59:25;;;;;;;0.63;0.63;;;8.40;99.90;;;;;;4896671;29;20662;-68
2024/02/19 09:01:53;;;;;;;0.73;0.73;;;8.40;99.90;;;;;;4899922;29;20238;-68
2024/02/19 09:04:20;;;;;;;1.48;1.15;;;8.50;99.90;;;;;;4896658;29;20211;-68
2024/02/19 09:06:47;;;;;;;0.40;0.40;;;8.50;99.90;;;;;;4897633;29;20626;-68
2024/02/19 09:09:14;;;;;;;1.23;1.23;;;8.50;99.90;;;;;;4898548;29;20261;-68
2024/02/19 09:11:41;;;;;;;0.90;0.90;;;8.60;99.90;;;;;;4898265;29;20234;-68
2024/02/19 09:14:07;;;;;;;2.75;1.75;;;8.70;99.90;;;;;;4896668;29;20207;-68
2024/02/19 09:16:34;;;;;;;2.15;1.83;;;8.70;99.90;;;;;;4898933;29;20218;-68
2024/02/19 09:19:06;;;;;;;0.50;0.50;;;8.80;99.90;;;;;;4896490;29;20211;-68
2024/02/19 09:21:33;;;;;;;0.73;0.70;;;8.80;99.90;;;;;;4899039;29;20318;-68
2024/02/19 09:23:59;;;;;;;3.58;2.58;;;8.80;99.90;;;;;;4899022;29;20328;-68
2024/02/19 09:26:26;;;;;;;1.70;1.60;;;8.80;99.90;;;;;;4899334;29;20216;-68
2024/02/19 09:28:53;;;;;;;13.43;1.70;;;8.90;99.90;;;;;;4896798;29;20224;-68
2024/02/19 09:31:23;;;;;;;3.72;1.83;;;8.90;99.90;;;;;;4894243;29;20225;-68
2024/02/19 09:33:49;;;;;;;1.40;1.40;;;8.90;99.90;;;;;;4895700;29;20243;-68
2024/02/19 09:36:18;;;;;;;2.58;1.30;;;9.00;99.90;;;;;;4897232;29;20222;-68
2024/02/19 09:38:46;;;;;;;3.10;2.80;;;9.00;99.90;;;;;;4896351;29;20559;-66
2024/02/19 09:41:12;;;;;;;2.25;1.40;;;9.10;99.90;;;;;;4899939;29;20300;-68
2024/02/19 09:43:39;;;;;;;2.85;1.10;;;9.20;99.90;;;;;;4894121;29;20247;-67
2024/02/19 09:46:14;;;;;;;0.50;0.50;;;9.20;99.90;;;;;;4898464;29;20210;-67
2024/02/19 09:48:44;;;;;;;0.68;0.68;;;9.30;99.90;;;;;;4898496;29;20224;-67
2024/02/19 09:51:14;;;;;;;0.30;0.30;;;9.30;99.90;;;;;;4898246;29;20238;-67
2024/02/19 09:53:44;;;;;;;1.30;0.40;;;9.40;99.90;;;;;;4895774;29;20229;-67
2024/02/19 09:56:13;;;;;;;0.75;0.75;;;9.40;99.90;;;;;;4897042;29;20221;-66
2024/02/19 09:58:41;;;;;;;0.50;0.50;;;9.40;99.90;;;;;;4896705;29;20224;-66
2024/02/19 10:01:08;;;;;;;1.10;1.10;;;9.40;99.90;;;;;;4895306;29;20305;-67
2024/02/19 10:03:35;;;;;;;0.90;0.90;;;9.40;99.90;;;;;;4897416;29;20674;-67
2024/02/19 10:06:03;;;;;;;1.38;0.73;;;9.40;99.90;;;;;;4897291;29;20213;-67
2024/02/19 10:08:32;;;;;;;1.30;1.30;;;9.40;99.90;;;;;;4898079;29;20242;-68
2024/02/19 10:11:06;;;;;;;0.95;0.47;;;9.50;99.90;;;;;;4898803;29;20238;-68
2024/02/19 10:13:34;;;;;;;0.40;0.40;;;9.50;99.90;;;;;;4894020;29;20822;-67
2024/02/19 10:16:00;;;;;;;0.40;0.40;;;9.50;99.90;;;;;;4895864;29;20240;-67
2024/02/19 10:18:27;;;;;;;0.55;0.55;;;9.50;99.90;;;;;;4892767;29;20259;-68
2024/02/19 10:20:58;;;;;;;0.75;0.75;;;9.60;99.90;;;;;;4898184;29;20232;-67
2024/02/19 10:23:25;;;;;;;2.55;0.50;;;9.60;99.90;;;;;;4896527;29;20683;-67
2024/02/19 10:25:52;;;;;;;0.88;0.88;;;9.70;99.90;;;;;;4895718;29;20215;-67
2024/02/19 10:28:22;;;;;;;2.20;2.10;;;9.70;99.90;;;;;;4896395;29;20212;-67
2024/02/19 10:30:48;;;;;;;1.23;1.23;;;9.60;99.90;;;;;;4897573;29;20242;-67
2024/02/19 10:33:15;;;;;;;2.13;2.03;;;9.60;99.90;;;;;;4893770;29;20215;-67
2024/02/19 10:35:42;;;;;;;2.75;2.05;;;9.60;99.90;;;;;;4897730;29;20225;-67
2024/02/19 10:38:09;;;;;;;1.52;1.30;;;9.50;99.90;;;;;;4897271;29;20214;-67
2024/02/19 10:40:36;;;;;;;0.63;0.50;;;9.50;99.90;;;;;;4896932;29;20262;-67
2024/02/19 10:43:05;;;;;;;2.45;1.95;;;9.50;99.90;;;;;;4896176;29;20218;-67
2024/02/19 10:45:34;;;;;;;1.30;1.20;;;9.50;99.90;;;;;;4894270;29;20300;-67
2024/02/19 10:48:01;;;;;;;5.15;0.90;;;9.60;99.90;;;;;;4896792;29;20563;-66
2024/02/19 10:50:32;;;;;;;1.00;1.00;;;9.60;99.90;;;;;;4893255;29;20241;-67
2024/02/19 10:52:59;;;;;;;3.00;1.00;;;9.60;99.90;;;;;;4887996;29;20209;-68
2024/02/19 10:55:28;;;;;;;1.10;1.00;;;9.60;99.90;;;;;;4896049;29;20654;-68
2024/02/19 10:57:56;;;;;;;1.52;1.42;;;9.60;99.90;;;;;;4897125;29;20215;-68
2024/02/19 11:00:26;;;;;;;1.10;1.05;;;9.60;99.90;;;;;;4894822;29;20209;-69
2024/02/19 11:03:05;;;;;;;1.05;1.05;;;9.60;99.90;;;;;;4897562;29;20221;-68
2024/02/19 11:05:36;;;;;;;1.73;1.63;;;9.60;99.90;;;;;;4895016;29;20209;-69
2024/02/19 11:08:02;;;;;;;1.00;1.00;;;9.60;99.90;;;;;;4894434;29;20556;-68
2024/02/19 11:10:39;;;;;;;0.77;0.73;;;9.70;99.90;;;;;;4895971;29;20229;-68
2024/02/19 11:13:07;;;;;;;1.23;0.57;;;9.70;99.90;;;;;;4893929;29;20209;-69
2024/02/19 11:15:40;;;;;;;2.78;0.47;;;9.70;99.90;;;;;;4897624;29;20261;-69
2024/02/19 11:18:15;;;;;;;2.58;1.10;;;9.70;99.90;;;;;;4892311;29;20214;-69
2024/02/19 11:20:42;;;;;;;0.43;0.43;;;9.70;99.90;;;;;;4894048;29;20232;-70
2024/02/19 11:23:08;;;;;;;0.75;0.75;;;9.70;99.90;;;;;;4893156;29;20216;-69
2024/02/19 11:25:35;;;;;;;0.77;0.77;;;9.80;99.90;;;;;;4893204;29;20214;-68
2024/02/19 11:28:03;;;;;;;0.93;0.93;;;9.80;99.90;;;;;;4892036;29;20217;-69
2024/02/19 11:30:31;;;;;;;9.13;1.25;;;9.90;99.90;;;;;;4894113;29;20583;-69
2024/02/19 11:33:01;;;;;;;2.00;1.00;;;9.90;99.90;;;;;;4897183;29;20223;-69
2024/02/19 11:35:30;;;;;;;0.88;0.88;;;9.90;99.90;;;;;;4895525;29;20210;-68
2024/02/19 11:37:57;;;;;;;1.10;1.00;;;9.90;99.90;;;;;;4896066;29;20301;-68
2024/02/19 11:40:31;;;;;;;0.65;0.65;;;10.00;99.90;;;;;;4896020;29;20236;-69
2024/02/19 11:42:59;;;;;;;3.20;0.90;;;10.00;99.90;;;;;;4896282;29;20215;-69
2024/02/19 11:45:26;;;;;;;0.90;0.90;;;10.00;99.90;;;;;;4894667;29;20304;-69
2024/02/19 11:47:53;;;;;;;1.35;1.17;;;10.00;99.90;;;;;;4896625;29;20310;-69
2024/02/19 11:50:23;;;;;;;1.20;0.90;;;10.10;99.90;;;;;;4892862;29;20227;-69
2024/02/19 11:52:53;;;;;;;1.42;0.60;;;10.30;99.90;;;;;;4891047;29;20711;-69
2024/02/19 11:55:21;;;;;;;1.60;1.13;;;10.40;99.90;;;;;;4894249;29;20214;-69
2024/02/19 11:57:49;;;;;;;3.13;1.38;;;10.50;99.90;;;;;;4890596;29;20468;-69
2024/02/19 12:00:16;;;;;;;2.83;0.53;;;10.70;99.90;;;;;;4895835;29;20211;-69
2024/02/19 12:02:43;;;;;;;9.53;2.00;;;10.80;99.90;;;;;;4893688;29;20489;-69
2024/02/19 12:05:11;;;;;;;0.93;0.90;;;10.90;99.90;;;;;;4893808;29;20487;-69
2024/02/19 12:07:38;;;;;;;2.00;0.87;;;11.00;99.90;;;;;;4896132;29;20531;-69
2024/02/19 12:10:10;;;;;;;1.60;1.33;;;11.00;99.90;;;;;;4895894;29;20571;-70
2024/02/19 12:12:38;;;;;;;1.20;0.70;;;11.00;99.90;;;;;;4895134;29;20472;-68
2024/02/19 12:15:09;;;;;;;0.70;0.70;;;11.00;99.90;;;;;;4896384;29;20499;-68
2024/02/19 12:17:35;;;;;;;0.90;0.70;;;11.00;99.90;;;;;;4890824;29;20210;-69
2024/02/19 12:20:02;;;;;;;4.53;2.10;;;11.00;99.90;;;;;;4896427;29;20463;-69
2024/02/19 12:22:29;;;;;;;0.60;0.60;;;11.00;99.90;;;;;;4895207;29;20498;-69
2024/02/19 12:24:56;;;;;;;3.65;0.95;;;11.10;99.90;;;;;;4895923;29;20218;-69
2024/02/19 12:27:24;;;;;;;4.67;1.00;;;11.10;99.90;;;;;;4893177;29;20211;-69
2024/02/19 12:29:52;;;;;;;0.50;0.50;;;11.10;99.90;;;;;;4895626;29;20927;-69
2024/02/19 12:32:19;;;;;;;0.90;0.90;;;11.10;99.90;;;;;;4894110;29;20542;-68
2024/02/19 12:34:46;;;;;;;2.63;0.60;;;11.10;99.90;;;;;;4888311;29;20460;-70
2024/02/19 12:37:13;;;;;;;0.30;0.30;;;;;;;;;;4892826;29;20490;-70
2024/02/19 12:39:40;;;;;;;3.07;0.93;;;11.10;99.90;;;;;;4893529;29;20215;-70
2024/02/19 12:42:08;;;;;;;0.60;0.60;;;11.00;99.90;;;;;;4894566;29;20487;-70
2024/02/19 12:44:36;;;;;;;0.73;0.73;;;11.00;99.90;;;;;;4888092;29;21107;-70
2024/02/19 12:47:04;;;;;;;0.50;0.50;;;10.90;99.90;;;;;;4893413;29;20483;-70
2024/02/19 12:49:32;;;;;;;1.07;1.07;;;11.00;99.90;;;;;;4894040;29;20989;-69
2024/02/19 12:52:00;;;;;;;0.73;0.73;;;10.90;99.90;;;;;;4896104;29;21010;-71
2024/02/19 12:54:26;;;;;;;0.60;0.60;;;10.80;99.90;;;;;;4896234;29;20218;-70
2024/02/19 12:56:53;;;;;;;3.80;0.90;;;10.80;99.90;;;;;;4893326;29;20218;-71
2024/02/19 12:59:20;;;;;;;1.10;1.00;;;10.80;99.90;;;;;;4893377;29;20207;-70
2024/02/19 13:01:50;;;;;;;3.90;1.27;;;10.90;99.90;;;;;;4893266;29;20875;-70
2024/02/19 13:04:17;;;;;;;1.40;0.80;;;11.00;99.90;;;;;;4894135;29;20242;-70
2024/02/19 13:06:44;;;;;;;1.10;1.10;;;11.10;99.90;;;;;;4894799;29;20483;-70
2024/02/19 13:09:11;;;;;;;1.63;1.10;;;11.20;99.90;;;;;;4894693;29;20463;-70
2024/02/19 13:11:38;;;;;;;1.70;0.80;;;11.10;99.90;;;;;;4895496;29;20495;-70
2024/02/19 13:14:05;;;;;;;7.07;1.00;;;11.00;99.90;;;;;;4894777;29;20472;-69
2024/02/19 13:16:34;;;;;;;10.90;6.57;;;10.90;99.90;;;;;;4895072;29;20471;-70
2024/02/19 13:19:03;;;;;;;0.50;0.50;;;10.90;99.90;;;;;;4888059;29;20626;-70
2024/02/19 13:21:29;;;;;;;3.10;1.20;;;10.90;99.90;;;;;;4895288;29;20487;-70
2024/02/19 13:23:56;;;;;;;0.93;0.93;;;10.90;99.90;;;;;;4895357;29;20470;-70
2024/02/19 13:26:23;;;;;;;1.50;1.50;;;10.90;99.90;;;;;;4895204;29;21183;-70
2024/02/19 13:28:50;;;;;;;2.43;1.20;;;10.80;99.90;;;;;;4895061;29;20474;-70
2024/02/19 13:31:17;;;;;;;1.80;1.10;;;10.80;99.90;;;;;;4891771;29;20502;-70
2024/02/19 13:33:44;;;;;;;1.07;0.97;;;10.80;99.90;;;;;;4886485;29;20487;-70
2024/02/19 13:36:12;;;;;;;1.35;0.95;;;10.80;99.90;;;;;;4894029;29;20467;-70
2024/02/19 13:38:40;;;;;;;3.53;0.90;;;10.70;99.90;;;;;;4894428;29;20742;-70
2024/02/19 13:41:09;;;;;;;2.60;1.40;;;10.70;99.90;;;;;;4894745;29;20234;-69
2024/02/19 13:43:36;;;;;;;2.40;1.45;;;10.70;99.90;;;;;;4893924;29;20282;-70
2024/02/19 13:46:06;;;;;;;2.58;1.50;;;10.70;99.90;;;;;;4898503;29;20210;-70
2024/02/19 13:48:33;;;;;;;3.55;1.73;;;10.70;99.90;;;;;;4896104;29;20225;-71
2024/02/19 13:51:00;;;;;;;1.20;1.20;;;10.70;99.90;;;;;;4894861;29;20230;-70
2024/02/19 13:53:30;;;;;;;3.47;3.30;;;10.70;99.90;;;;;;4897040;29;20245;-70
2024/02/19 13:55:57;;;;;;;1.30;1.30;;;10.70;99.90;;;;;;4896656;29;20688;-70
2024/02/19 13:58:26;;;;;;;1.42;1.42;;;10.70;99.90;;;;;;4898514;29;20677;-71
2024/02/19 14:00:54;;;;;;;1.23;1.13;;;10.70;99.90;;;;;;4897647;29;20246;-69
2024/02/19 14:03:20;;;;;;;1.35;1.10;;;10.60;99.90;;;;;;4897997;29;20576;-70
2024/02/19 14:05:47;;;;;;;0.95;0.95;;;10.60;99.90;;;;;;4890569;29;20266;-70
2024/02/19 14:08:15;;;;;;;4.85;1.45;;;10.60;99.90;;;;;;4898156;29;20221;-70
2024/02/19 14:10:43;;;;;;;8.48;1.05;;;10.60;99.90;;;;;;4894882;29;20231;-70
2024/02/19 14:13:10;;;;;;;1.53;1.43;;;10.50;99.90;;;;;;4894508;29;20203;-69
2024/02/19 14:15:38;;;;;;;1.70;1.60;;;10.50;99.90;;;;;;4896631;29;20494;-69
2024/02/19 14:18:05;;;;;;;4.77;1.27;;;10.50;99.90;;;;;;4894946;29;20472;-69
2024/02/19 14:20:32;;;;;;;3.17;2.20;;;10.60;99.90;;;;;;4893240;29;21021;-70
2024/02/19 14:22:59;;;;;;;3.38;1.70;;;10.60;99.90;;;;;;4891460;29;20478;-69
2024/02/19 14:25:25;;;;;;;1.03;1.00;;;10.60;99.90;;;;;;4897495;29;20211;-69
2024/02/19 14:27:54;;;;;;;2.40;0.90;;;10.60;99.90;;;;;;4892678;29;20849;-69
2024/02/19 14:30:21;;;;;;;8.68;1.35;;;10.50;99.90;;;;;;4897319;29;20470;-69
2024/02/19 14:32:48;;;;;;;1.70;1.60;;;10.50;99.90;;;;;;4893453;29;20667;-70
2024/02/19 14:35:14;;;;;;;2.27;1.20;;;10.40;99.90;;;;;;4896391;29;20472;-70
2024/02/19 14:37:43;;;;;;;0.77;0.77;;;10.40;99.90;;;;;;4896669;29;20472;-70
2024/02/19 14:40:13;;;;;;;1.00;1.00;;;10.30;99.90;;;;;;4896002;29;20220;-70
2024/02/19 14:42:41;;;;;;;0.90;0.90;;;10.40;99.90;;;;;;4892354;29;20584;-70
2024/02/19 14:45:10;;;;;;;1.00;1.00;;;10.30;99.90;;;;;;4897086;29;20215;-70
2024/02/19 14:47:38;;;;;;;1.65;1.65;;;10.30;99.90;;;;;;4897473;29;20210;-70
2024/02/19 14:50:06;;;;;;;1.40;1.20;;;10.30;99.90;;;;;;4896840;29;20689;-71
2024/02/19 14:52:33;;;;;;;2.53;2.33;;;10.30;99.90;;;;;;4895041;29;20717;-70
2024/02/19 14:55:07;;;;;;;1.30;1.30;;;10.30;99.90;;;;;;4896803;29;20222;-71
2024/02/19 14:57:33;;;;;;;1.40;1.25;;;10.40;99.90;;;;;;4893967;29;20210;-71
2024/02/19 15:00:01;;;;;;;1.50;1.40;;;10.50;99.90;;;;;;4897191;29;20219;-70
2024/02/19 15:02:30;;;;;;;2.67;2.47;;;10.50;99.90;;;;;;4896198;29;20514;-71
2024/02/19 15:04:57;;;;;;;4.03;0.90;;;10.50;99.90;;;;;;4897257;29;20467;-71
2024/02/19 15:07:24;;;;;;;1.55;1.42;;;10.60;99.90;;;;;;4896435;29;20478;-71
2024/02/19 15:09:50;;;;;;;1.40;1.37;;;10.60;99.90;;;;;;4896862;29;20230;-70
2024/02/19 15:12:17;;;;;;;3.50;1.70;;;10.60;99.90;;;;;;4897132;29;20510;-71
2024/02/19 15:14:44;;;;;;;2.05;1.38;;;10.70;99.90;;;;;;4897393;29;20287;-70
2024/02/19 15:17:11;;;;;;;3.87;2.00;;;10.70;99.90;;;;;;4890943;29;20212;-70
2024/02/19 15:19:39;;;;;;;2.33;1.10;;;10.80;99.90;;;;;;4895014;29;20589;-71
2024/02/19 15:22:06;;;;;;;1.00;1.00;;;10.80;99.90;;;;;;4896688;29;20487;-71
2024/02/19 15:24:33;;;;;;;0.93;0.93;;;10.80;99.90;;;;;;4897223;29;20467;-71
2024/02/19 15:27:00;;;;;;;1.60;1.27;;;10.80;99.90;;;;;;4897078;29;20468;-71
2024/02/19 15:29:27;;;;;;;1.30;1.17;;;10.80;99.90;;;;;;4895164;29;20536;-71
2024/02/19 15:31:54;;;;;;;1.30;1.30;;;10.80;99.90;;;;;;4897532;29;20970;-71
2024/02/19 15:34:21;;;;;;;2.07;1.97;;;10.70;99.90;;;;;;4898238;29;20494;-71
2024/02/19 15:36:49;;;;;;;1.93;1.83;;;10.70;99.90;;;;;;4891271;29;20569;-71
2024/02/19 15:39:16;;;;;;;1.08;0.95;;;10.70;99.90;;;;;;4896389;29;20563;-71
2024/02/19 15:41:43;;;;;;;1.50;0.83;;;10.70;99.90;;;;;;4896538;29;20318;-71
2024/02/19 15:44:10;;;;;;;1.23;1.23;;;10.60;99.90;;;;;;4896332;29;20475;-70
2024/02/19 15:46:36;;;;;;;0.60;0.60;;;10.60;99.90;;;;;;4896783;29;20590;-70
2024/02/19 15:49:03;;;;;;;0.60;0.60;;;10.60;99.90;;;;;;4894910;29;20519;-69
2024/02/19 15:51:30;;;;;;;1.15;0.93;;;10.60;99.90;;;;;;4896061;29;20235;-70
2024/02/19 15:53:58;;;;;;;1.75;1.40;;;10.50;99.90;;;;;;4896741;29;20585;-70
2024/02/19 15:56:25;;;;;;;4.47;1.30;;;10.50;99.90;;;;;;4896257;29;20211;-70
2024/02/19 15:58:52;;;;;;;0.80;0.80;;;10.50;99.90;;;;;;4891278;29;20482;-71
2024/02/19 16:01:20;;;;;;;1.55;0.95;;;10.50;99.90;;;;;;4893199;29;20297;-71
2024/02/19 16:03:49;;;;;;;4.68;1.40;;;10.50;99.90;;;;;;4890188;29;20212;-71
2024/02/19 16:06:16;;;;;;;0.98;0.63;;;10.50;99.90;;;;;;4896428;29;20214;-71
2024/02/19 16:08:44;;;;;;;1.40;1.30;;;10.50;99.90;;;;;;4895761;29;20640;-72
2024/02/19 16:11:12;;;;;;;2.03;1.65;;;10.50;99.90;;;;;;4895299;29;20737;-72
2024/02/19 16:13:40;;;;;;;0.82;0.82;;;10.50;99.90;;;;;;4895245;29;20685;-71
2024/02/19 16:16:10;;;;;;;2.38;2.08;;;10.40;99.90;;;;;;4896250;29;20206;-71
2024/02/19 16:18:36;;;;;;;2.25;2.00;;;10.40;99.90;;;;;;4889687;29;20221;-71
2024/02/19 16:21:04;;;;;;;2.53;2.42;;;10.40;99.90;;;;;;4891947;29;20234;-71
2024/02/19 16:23:32;;;;;;;2.45;2.35;;;10.40;99.90;;;;;;4892581;29;20205;-71
2024/02/19 16:26:01;;;;;;;1.70;1.40;;;10.30;99.90;;;;;;4896161;29;20582;-71
2024/02/19 16:28:29;;;;;;;5.28;3.80;;;10.30;99.90;;;;;;4895969;29;20215;-72
2024/02/19 16:30:56;;;;;;;5.55;2.10;;;10.30;99.90;;;;;;4895503;29;20720;-71
2024/02/19 16:33:22;;;;;;;2.53;2.38;;;10.30;99.90;;;;;;4896242;29;20210;-70
2024/02/19 16:35:50;;;;;;;3.30;3.05;;;10.20;99.90;;;;;;4894725;29;20217;-71
2024/02/19 16:38:16;;;;;;;3.17;2.83;;;10.20;99.90;;;;;;4894445;29;20539;-71
2024/02/19 16:40:45;;;;;;;3.83;2.05;;;10.20;99.90;;;;;;4892901;29;20606;-71
2024/02/19 16:43:12;;;;;;;1.95;1.95;;;10.10;99.90;;;;;;4895567;29;20210;-71
2024/02/19 16:45:40;;;;;;;8.10;3.55;;;10.00;99.90;;;;;;4896153;29;20214;-71
2024/02/19 16:48:10;;;;;;;3.65;2.90;;;9.90;99.90;;;;;;4894909;29;20233;-70
2024/02/19 16:50:38;;;;;;;1.50;1.50;;;9.90;99.90;;;;;;4894840;29;20231;-71
2024/02/19 16:53:05;;;;;;;2.42;2.33;;;9.80;99.90;;;;;;4895630;29;20317;-70
2024/02/19 16:55:32;;;;;;;3.08;2.53;;;9.80;99.90;;;;;;4894347;29;20229;-71
2024/02/19 16:57:59;;;;;;;5.65;3.65;;;9.70;99.90;;;;;;4894654;29;20583;-70
2024/02/19 17:00:25;;;;;;;4.65;3.00;;;9.70;99.90;;;;;;4892453;29;20232;-70
2024/02/19 17:02:53;;;;;;;4.95;3.30;;;9.70;99.90;;;;;;4895813;29;20605;-72
2024/02/19 17:05:20;;;;;;;2.00;1.90;;;9.60;99.90;;;;;;4895147;29;20294;-71
2024/02/19 17:07:47;;;;;;;6.03;2.10;;;9.60;99.90;;;;;;4895442;29;20212;-71
2024/02/19 17:10:15;;;;;;;3.00;2.70;;;9.50;99.90;;;;;;4893731;29;20582;-69
2024/02/19 17:12:42;;;;;;;1.95;1.85;;;9.60;99.90;;;;;;4894878;29;20240;-70
2024/02/19 17:15:09;;;;;;;5.70;2.03;;;9.50;99.90;;;;;;4896176;29;20794;-71
2024/02/19 17:17:36;;;;;;;1.85;1.75;;;9.50;99.90;;;;;;4894650;29;20212;-70
2024/02/19 17:20:05;;;;;;;4.72;2.58;;;9.40;99.90;;;;;;4897465;29;20241;-71
2024/02/19 17:22:31;;;;;;;2.10;2.00;;;9.40;99.90;;;;;;4897512;29;20224;-71
2024/02/19 17:24:58;;;;;;;2.75;2.65;;;9.40;99.90;;;;;;4898637;29;20314;-71
2024/02/19 17:27:25;;;;;;;3.50;3.25;;;9.40;99.90;;;;;;4898454;29;20243;-70
2024/02/19 17:29:52;;;;;;;5.03;2.55;;;9.40;99.90;;;;;;4899085;29;20294;-71
2024/02/19 17:32:19;;;;;;;4.90;2.72;;;9.40;99.90;;;;;;4890515;29;20296;-70
2024/02/19 17:34:49;;;;;;;2.70;2.30;;;9.40;99.90;;;;;;4898316;29;20789;-70
2024/02/19 17:37:20;;;;;;;3.22;2.00;;;9.40;99.90;;;;;;4896908;29;20425;-70
2024/02/19 17:39:47;;;;;;;5.32;3.08;;;9.40;99.90;;;;;;4898287;29;20309;-71
2024/02/19 17:42:17;;;;;;;2.60;2.40;;;9.40;99.90;;;;;;4896490;29;20238;-70
2024/02/19 17:44:45;;;;;;;6.72;3.38;;;9.40;99.90;;;;;;4898667;29;20215;-71
2024/02/19 17:47:11;;;;;;;6.15;3.30;;;9.40;99.90;;;;;;4896115;29;20292;-70
2024/02/19 17:49:39;;;;;;;3.60;3.35;;;9.40;99.90;;;;;;4896518;29;20561;-71
2024/02/19 17:52:07;;;;;;;3.90;2.78;;;9.40;99.90;;;;;;4898113;29;20274;-70
2024/02/19 17:54:35;;;;;;;5.72;3.65;;;9.40;99.90;;;;;;4894434;29;20219;-71